sensor_id;sensor_type;location;lat;lon;timestamp;pressure;altitude;pressure_sealevel;temperature;humidity
12666;BME280;58531;59.050;17.416;2023-02-08T00:00:59;102705.16;;;1.41;100.00
12666;BME280;58531;59.050;17.416;2023-02-08T00:03:26;102702.88;;;1.39;100.00
12666;BME280;58531;59.050;17.416;2023-02-08T00:05:53;102707.94;;;1.44;100.00
12666;BME280;58531;59.050;17.416;2023-02-08T00:08:20;102714.88;;;1.49;100.00
12666;BME280;58531;59.050;17.416;2023-02-08T00:10:48;102718.41;;;1.53;100.00
12666;BME280;58531;59.050;17.416;2023-02-08T00:13:15;102726.94;;;1.50;100.00
12666;BME280;58531;59.050;17.416;2023-02-08T00:15:43;102725.41;;;1.49;100.00
12666;BME280;58531;59.050;17.416;2023-02-08T00:18:10;102726.94;;;1.50;100.00
12666;BME280;58531;59.050;17.416;2023-02-08T00:20:38;102725.66;;;1.56;100.00
12666;BME280;58531;59.050;17.416;2023-02-08T00:23:05;102725.00;;;1.59;100.00
12666;BME280;58531;59.050;17.416;2023-02-08T00:25:32;102722.03;;;1.60;100.00
12666;BME280;58531;59.050;17.416;2023-02-08T00:28:00;102731.81;;;1.60;100.00
12666;BME280;58531;59.050;17.416;2023-02-08T00:30:27;102719.84;;;1.62;100.00
12666;BME280;58531;59.050;17.416;2023-02-08T00:32:53;102727.84;;;1.54;100.00
12666;BME280;58531;59.050;17.416;2023-02-08T00:35:20;102716.97;;;1.55;100.00
12666;BME280;58531;59.050;17.416;2023-02-08T00:37:47;102711.41;;;1.57;100.00
12666;BME280;58531;59.050;17.416;2023-02-08T00:40:14;102718.00;;;1.63;100.00
12666;BME280;58531;59.050;17.416;2023-02-08T00:42:41;102721.28;;;1.60;100.00
12666;BME280;58531;59.050;17.416;2023-02-08T00:45:09;102718.75;;;1.63;100.00
12666;BME280;58531;59.050;17.416;2023-02-08T00:47:36;102720.31;;;1.64;100.00
12666;BME280;58531;59.050;17.416;2023-02-08T00:50:04;102721.84;;;1.65;100.00
12666;BME280;58531;59.050;17.416;2023-02-08T00:52:31;102706.19;;;1.69;100.00
12666;BME280;58531;59.050;17.416;2023-02-08T00:54:58;102706.63;;;1.71;100.00
12666;BME280;58531;59.050;17.416;2023-02-08T00:57:25;102705.84;;;1.70;100.00
12666;BME280;58531;59.050;17.416;2023-02-08T00:59:51;102704.44;;;1.73;100.00
12666;BME280;58531;59.050;17.416;2023-02-08T01:02:20;102699.47;;;1.71;100.00
12666;BME280;58531;59.050;17.416;2023-02-08T01:04:46;102700.28;;;1.72;100.00
12666;BME280;58531;59.050;17.416;2023-02-08T01:07:13;102695.13;;;1.75;100.00
12666;BME280;58531;59.050;17.416;2023-02-08T01:09:40;102694.34;;;1.75;100.00
12666;BME280;58531;59.050;17.416;2023-02-08T01:12:07;102696.34;;;1.78;100.00
12666;BME280;58531;59.050;17.416;2023-02-08T01:14:36;102704.09;;;1.74;100.00
12666;BME280;58531;59.050;17.416;2023-02-08T01:17:03;102703.00;;;1.75;100.00
12666;BME280;58531;59.050;17.416;2023-02-08T01:19:31;102704.56;;;1.76;100.00
12666;BME280;58531;59.050;17.416;2023-02-08T01:21:58;102700.47;;;1.79;100.00
12666;BME280;58531;59.050;17.416;2023-02-08T01:24:25;102695.22;;;1.79;100.00
12666;BME280;58531;59.050;17.416;2023-02-08T01:26:52;102688.22;;;1.83;100.00
12666;BME280;58531;59.050;17.416;2023-02-08T01:29:19;102686.91;;;1.89;100.00
12666;BME280;58531;59.050;17.416;2023-02-08T01:31:45;102695.25;;;1.91;100.00
12666;BME280;58531;59.050;17.416;2023-02-08T01:34:12;102685.16;;;1.93;100.00
12666;BME280;58531;59.050;17.416;2023-02-08T01:36:40;102694.50;;;1.90;100.00
12666;BME280;58531;59.050;17.416;2023-02-08T01:39:10;102687.06;;;1.92;100.00
12666;BME280;58531;59.050;17.416;2023-02-08T01:41:39;102683.97;;;1.90;100.00
12666;BME280;58531;59.050;17.416;2023-02-08T01:47:13;102681.88;;;1.96;100.00
12666;BME280;58531;59.050;17.416;2023-02-08T01:49:40;102664.97;;;1.97;100.00
12666;BME280;58531;59.050;17.416;2023-02-08T01:52:12;102669.38;;;1.93;100.00
12666;BME280;58531;59.050;17.416;2023-02-08T01:54:43;102670.91;;;1.94;100.00
12666;BME280;58531;59.050;17.416;2023-02-08T01:57:12;102669.16;;;1.98;100.00
12666;BME280;58531;59.050;17.416;2023-02-08T01:59:42;102664.66;;;1.98;100.00
12666;BME280;58531;59.050;17.416;2023-02-08T02:02:13;102668.94;;;2.03;100.00
12666;BME280;58531;59.050;17.416;2023-02-08T02:04:42;102675.00;;;2.03;100.00
12666;BME280;58531;59.050;17.416;2023-02-08T02:07:11;102673.53;;;1.94;100.00
12666;BME280;58531;59.050;17.416;2023-02-08T02:09:43;102675.72;;;1.92;100.00
12666;BME280;58531;59.050;17.416;2023-02-08T02:12:12;102681.56;;;1.97;100.00
12666;BME280;58531;59.050;17.416;2023-02-08T02:14:40;102681.47;;;2.06;100.00
12666;BME280;58531;59.050;17.416;2023-02-08T02:17:10;102683.66;;;2.04;100.00
12666;BME280;58531;59.050;17.416;2023-02-08T02:19:45;102680.69;;;2.05;100.00
12666;BME280;58531;59.050;17.416;2023-02-08T02:22:30;102685.31;;;2.08;100.00
12666;BME280;58531;59.050;17.416;2023-02-08T02:25:18;102674.25;;;2.15;100.00
12666;BME280;58531;59.050;17.416;2023-02-08T02:28:21;102671.91;;;2.13;100.00
12666;BME280;58531;59.050;17.416;2023-02-08T02:34:00;102677.09;;;2.10;100.00
12666;BME280;58531;59.050;17.416;2023-02-08T02:36:34;102675.34;;;2.14;100.00
12666;BME280;58531;59.050;17.416;2023-02-08T02:39:10;102678.28;;;2.12;100.00
12666;BME280;58531;59.050;17.416;2023-02-08T02:41:50;102682.22;;;2.06;100.00
12666;BME280;58531;59.050;17.416;2023-02-08T02:44:42;102691.34;;;2.09;100.00
12666;BME280;58531;59.050;17.416;2023-02-08T02:47:18;102697.19;;;2.14;100.00
12666;BME280;58531;59.050;17.416;2023-02-08T02:49:51;102699.94;;;2.18;100.00
12666;BME280;58531;59.050;17.416;2023-02-08T02:52:23;102705.22;;;2.18;100.00
12666;BME280;58531;59.050;17.416;2023-02-08T02:54:53;102713.56;;;2.20;100.00
12666;BME280;58531;59.050;17.416;2023-02-08T02:57:25;102714.88;;;2.14;100.00
12666;BME280;58531;59.050;17.416;2023-02-08T02:59:53;102712.03;;;2.19;100.00
12666;BME280;58531;59.050;17.416;2023-02-08T03:02:20;102710.03;;;2.16;100.00
12666;BME280;58531;59.050;17.416;2023-02-08T03:04:52;102705.88;;;2.15;100.00
12666;BME280;58531;59.050;17.416;2023-02-08T03:10:36;102700.59;;;2.15;100.00
12666;BME280;58531;59.050;17.416;2023-02-08T03:13:19;102706.75;;;2.19;100.00
12666;BME280;58531;59.050;17.416;2023-02-08T03:15:56;102699.94;;;2.18;100.00
12666;BME280;58531;59.050;17.416;2023-02-08T03:18:34;102698.00;;;2.27;100.00
12666;BME280;58531;59.050;17.416;2023-02-08T03:21:08;102687.44;;;2.27;100.00
12666;BME280;58531;59.050;17.416;2023-02-08T03:23:40;102681.38;;;2.26;100.00
12666;BME280;58531;59.050;17.416;2023-02-08T03:26:15;102691.19;;;2.26;100.00
12666;BME280;58531;59.050;17.416;2023-02-08T03:28:49;102679.75;;;2.22;100.00
12666;BME280;58531;59.050;17.416;2023-02-08T03:31:26;102675.88;;;2.19;100.00
12666;BME280;58531;59.050;17.416;2023-02-08T03:33:58;102683.03;;;2.19;100.00
12666;BME280;58531;59.050;17.416;2023-02-08T03:36:32;102696.53;;;2.17;100.00
12666;BME280;58531;59.050;17.416;2023-02-08T03:39:02;102697.63;;;2.16;100.00
12666;BME280;58531;59.050;17.416;2023-02-08T03:41:33;102702.13;;;2.16;100.00
12666;BME280;58531;59.050;17.416;2023-02-08T03:44:05;102706.19;;;2.13;100.00
12666;BME280;58531;59.050;17.416;2023-02-08T03:46:37;102698.16;;;2.10;100.00
12666;BME280;58531;59.050;17.416;2023-02-08T03:49:08;102702.78;;;2.13;100.00
12666;BME280;58531;59.050;17.416;2023-02-08T03:51:39;102692.25;;;2.13;100.00
12666;BME280;58531;59.050;17.416;2023-02-08T03:54:11;102699.94;;;2.18;100.00
12666;BME280;58531;59.050;17.416;2023-02-08T03:56:43;102697.63;;;2.16;100.00
12666;BME280;58531;59.050;17.416;2023-02-08T03:59:13;102711.25;;;2.18;100.00
12666;BME280;58531;59.050;17.416;2023-02-08T04:01:45;102709.84;;;2.21;100.00
12666;BME280;58531;59.050;17.416;2023-02-08T04:04:15;102721.03;;;2.18;100.00
12666;BME280;58531;59.050;17.416;2023-02-08T04:06:46;102710.50;;;2.18;100.00
12666;BME280;58531;59.050;17.416;2023-02-08T04:09:13;102727.19;;;2.22;100.00
12666;BME280;58531;59.050;17.416;2023-02-08T04:11:40;102714.31;;;2.20;100.00
12666;BME280;58531;59.050;17.416;2023-02-08T04:14:06;102715.75;;;2.18;100.00
12666;BME280;58531;59.050;17.416;2023-02-08T04:16:33;102723.78;;;2.21;100.00
12666;BME280;58531;59.050;17.416;2023-02-08T04:19:00;102714.47;;;2.24;100.00
12666;BME280;58531;59.050;17.416;2023-02-08T04:21:27;102720.38;;;2.21;100.00
12666;BME280;58531;59.050;17.416;2023-02-08T04:23:55;102725.84;;;2.16;100.00
12666;BME280;58531;59.050;17.416;2023-02-08T04:26:22;102726.94;;;2.15;100.00
12666;BME280;58531;59.050;17.416;2023-02-08T04:28:48;102733.88;;;2.19;100.00
12666;BME280;58531;59.050;17.416;2023-02-08T04:31:15;102734.66;;;2.20;100.00
12666;BME280;58531;59.050;17.416;2023-02-08T04:33:42;102740.81;;;2.24;100.00
12666;BME280;58531;59.050;17.416;2023-02-08T04:36:09;102737.97;;;2.29;100.00
12666;BME280;58531;59.050;17.416;2023-02-08T04:38:36;102743.56;;;2.27;100.00
12666;BME280;58531;59.050;17.416;2023-02-08T04:41:04;102738.38;;;2.19;100.00
12666;BME280;58531;59.050;17.416;2023-02-08T04:43:31;102747.63;;;2.25;100.00
12666;BME280;58531;59.050;17.416;2023-02-08T04:45:58;102747.38;;;2.29;100.00
12666;BME280;58531;59.050;17.416;2023-02-08T04:48:24;102745.44;;;2.27;100.00
12666;BME280;58531;59.050;17.416;2023-02-08T04:50:53;102751.56;;;2.30;100.00
12666;BME280;58531;59.050;17.416;2023-02-08T04:53:20;102754.66;;;2.32;100.00
12666;BME280;58531;59.050;17.416;2023-02-08T04:55:47;102754.88;;;2.39;100.00
12666;BME280;58531;59.050;17.416;2023-02-08T04:58:15;102754.66;;;2.32;100.00
12666;BME280;58531;59.050;17.416;2023-02-08T05:00:43;102755.44;;;2.33;100.00
12666;BME280;58531;59.050;17.416;2023-02-08T05:03:09;102745.00;;;2.36;100.00
12666;BME280;58531;59.050;17.416;2023-02-08T05:05:36;102747.31;;;2.38;100.00
12666;BME280;58531;59.050;17.416;2023-02-08T05:08:04;102748.84;;;2.39;100.00
12666;BME280;58531;59.050;17.416;2023-02-08T05:10:30;102742.78;;;2.38;100.00
12666;BME280;58531;59.050;17.416;2023-02-08T05:12:57;102746.53;;;2.37;100.00
12666;BME280;58531;59.050;17.416;2023-02-08T05:15:26;102734.38;;;2.45;100.00
12666;BME280;58531;59.050;17.416;2023-02-08T05:17:53;102741.94;;;2.46;100.00
12666;BME280;58531;59.050;17.416;2023-02-08T05:20:19;102745.22;;;2.43;100.00
12666;BME280;58531;59.050;17.416;2023-02-08T05:22:46;102746.53;;;2.37;100.00
12666;BME280;58531;59.050;17.416;2023-02-08T05:25:13;102740.06;;;2.47;100.00
12666;BME280;58531;59.050;17.416;2023-02-08T05:27:42;102739.28;;;2.46;100.00
12666;BME280;58531;59.050;17.416;2023-02-08T05:30:10;102741.03;;;2.42;100.00
12666;BME280;58531;59.050;17.416;2023-02-08T05:32:38;102734.69;;;2.43;100.00
12666;BME280;58531;59.050;17.416;2023-02-08T05:35:06;102737.75;;;2.45;100.00
12666;BME280;58531;59.050;17.416;2023-02-08T05:37:32;102734.81;;;2.47;100.00
12666;BME280;58531;59.050;17.416;2023-02-08T05:39:59;102739.94;;;2.43;100.00
12666;BME280;58531;59.050;17.416;2023-02-08T05:42:26;102729.84;;;2.45;100.00
12666;BME280;58531;59.050;17.416;2023-02-08T05:44:53;102719.09;;;2.50;100.00
12666;BME280;58531;59.050;17.416;2023-02-08T05:47:20;102722.16;;;2.52;100.00
12666;BME280;58531;59.050;17.416;2023-02-08T05:49:48;102713.81;;;2.50;100.00
12666;BME280;58531;59.050;17.416;2023-02-08T05:52:14;102709.31;;;2.51;100.00
12666;BME280;58531;59.050;17.416;2023-02-08T05:54:41;102716.13;;;2.52;100.00
12666;BME280;58531;59.050;17.416;2023-02-08T05:57:08;102719.75;;;2.47;100.00
12666;BME280;58531;59.050;17.416;2023-02-08T05:59:35;102723.25;;;2.51;100.00
12666;BME280;58531;59.050;17.416;2023-02-08T06:02:02;102719.88;;;2.51;100.00
12666;BME280;58531;59.050;17.416;2023-02-08T06:04:29;102722.81;;;2.49;100.00
12666;BME280;58531;59.050;17.416;2023-02-08T06:06:57;102711.16;;;2.50;100.00
12666;BME280;58531;59.050;17.416;2023-02-08T06:09:24;102715.47;;;2.55;100.00
12666;BME280;58531;59.050;17.416;2023-02-08T06:11:50;102710.50;;;2.53;100.00
12666;BME280;58531;59.050;17.416;2023-02-08T06:14:17;102716.88;;;2.52;100.00
12666;BME280;58531;59.050;17.416;2023-02-08T06:16:44;102723.03;;;2.56;100.00
12666;BME280;58531;59.050;17.416;2023-02-08T06:19:11;102721.50;;;2.55;100.00
12666;BME280;58531;59.050;17.416;2023-02-08T06:21:38;102708.31;;;2.55;100.00
12666;BME280;58531;59.050;17.416;2023-02-08T06:24:07;102714.47;;;2.59;100.00
12666;BME280;58531;59.050;17.416;2023-02-08T06:26:36;102718.44;;;2.53;100.00
12666;BME280;58531;59.050;17.416;2023-02-08T06:29:03;102718.44;;;2.53;100.00
12666;BME280;58531;59.050;17.416;2023-02-08T06:31:29;102719.22;;;2.54;100.00
12666;BME280;58531;59.050;17.416;2023-02-08T06:33:56;102710.97;;;2.55;100.00
12666;BME280;58531;59.050;17.416;2023-02-08T06:36:23;102711.84;;;2.59;100.00
12666;BME280;58531;59.050;17.416;2023-02-08T06:38:50;102713.69;;;2.59;100.00
12666;BME280;58531;59.050;17.416;2023-02-08T06:41:18;102705.91;;;2.62;100.00
12666;BME280;58531;59.050;17.416;2023-02-08T06:43:45;102712.72;;;2.63;100.00
12666;BME280;58531;59.050;17.416;2023-02-08T06:46:12;102707.88;;;2.65;100.00
12666;BME280;58531;59.050;17.416;2023-02-08T06:48:38;102707.09;;;2.65;100.00
12666;BME280;58531;59.050;17.416;2023-02-08T06:51:05;102709.00;;;2.64;100.00
12666;BME280;58531;59.050;17.416;2023-02-08T06:53:32;102703.59;;;2.61;100.00
12666;BME280;58531;59.050;17.416;2023-02-08T06:55:59;102709.66;;;2.61;100.00
12666;BME280;58531;59.050;17.416;2023-02-08T06:58:27;102714.25;;;2.64;100.00
12666;BME280;58531;59.050;17.416;2023-02-08T07:00:54;102706.78;;;2.66;100.00
12666;BME280;58531;59.050;17.416;2023-02-08T07:03:20;102699.97;;;2.65;100.00
12666;BME280;58531;59.050;17.416;2023-02-08T07:05:48;102713.47;;;2.64;100.00
12666;BME280;58531;59.050;17.416;2023-02-08T07:08:15;102709.75;;;2.65;100.00
12666;BME280;58531;59.050;17.416;2023-02-08T07:10:41;102704.47;;;2.65;100.00
12666;BME280;58531;59.050;17.416;2023-02-08T07:13:08;102712.16;;;2.70;100.00
12666;BME280;58531;59.050;17.416;2023-02-08T07:15:36;102729.88;;;2.69;100.00
12666;BME280;58531;59.050;17.416;2023-02-08T07:18:03;102723.06;;;2.68;100.00
12666;BME280;58531;59.050;17.416;2023-02-08T07:20:30;102713.69;;;2.71;100.00
12666;BME280;58531;59.050;17.416;2023-02-08T07:22:57;102718.66;;;2.72;100.00
12666;BME280;58531;59.050;17.416;2023-02-08T07:25:24;102723.94;;;2.72;100.00
12666;BME280;58531;59.050;17.416;2023-02-08T07:27:51;102724.81;;;2.76;100.00
12666;BME280;58531;59.050;17.416;2023-02-08T07:30:18;102729.00;;;2.77;100.00
12666;BME280;58531;59.050;17.416;2023-02-08T07:32:46;102730.41;;;2.75;100.00
12666;BME280;58531;59.050;17.416;2023-02-08T07:35:13;102730.63;;;2.82;100.00
12666;BME280;58531;59.050;17.416;2023-02-08T07:37:40;102729.19;;;2.84;100.00
12666;BME280;58531;59.050;17.416;2023-02-08T07:40:07;102733.16;;;2.90;100.00
12666;BME280;58531;59.050;17.416;2023-02-08T07:42:35;102729.84;;;2.93;100.00
12666;BME280;58531;59.050;17.416;2023-02-08T07:45:02;102738.53;;;2.94;100.00
12666;BME280;58531;59.050;17.416;2023-02-08T07:47:29;102737.44;;;2.95;100.00
12666;BME280;58531;59.050;17.416;2023-02-08T07:49:57;102739.31;;;2.94;100.00
12666;BME280;58531;59.050;17.416;2023-02-08T07:52:24;102741.28;;;2.97;100.00
12666;BME280;58531;59.050;17.416;2023-02-08T07:54:51;102738.63;;;2.97;100.00
12666;BME280;58531;59.050;17.416;2023-02-08T07:57:18;102739.41;;;2.98;100.00
12666;BME280;58531;59.050;17.416;2023-02-08T07:59:46;102743.25;;;3.00;100.00
12666;BME280;58531;59.050;17.416;2023-02-08T08:02:14;102745.91;;;3.00;100.00
12666;BME280;58531;59.050;17.416;2023-02-08T08:04:41;102746.34;;;3.02;100.00
12666;BME280;58531;59.050;17.416;2023-02-08T08:07:09;102758.88;;;3.05;100.00
12666;BME280;58531;59.050;17.416;2023-02-08T08:09:36;102752.06;;;3.04;100.00
12666;BME280;58531;59.050;17.416;2023-02-08T08:12:03;102741.84;;;3.03;100.00
12666;BME280;58531;59.050;17.416;2023-02-08T08:14:30;102741.59;;;3.08;100.00
12666;BME280;58531;59.050;17.416;2023-02-08T08:16:57;102751.16;;;3.12;100.00
12666;BME280;58531;59.050;17.416;2023-02-08T08:19:24;102752.25;;;3.11;100.00
12666;BME280;58531;59.050;17.416;2023-02-08T08:21:51;102741.72;;;3.11;100.00
12666;BME280;58531;59.050;17.416;2023-02-08T08:24:19;102747.88;;;3.15;100.00
12666;BME280;58531;59.050;17.416;2023-02-08T08:26:45;102758.63;;;3.22;100.00
12666;BME280;58531;59.050;17.416;2023-02-08T08:29:12;102754.13;;;3.23;100.00
12666;BME280;58531;59.050;17.416;2023-02-08T08:31:41;102754.66;;;3.28;100.00
12666;BME280;58531;59.050;17.416;2023-02-08T08:34:08;102763.88;;;3.34;100.00
12666;BME280;58531;59.050;17.416;2023-02-08T08:36:35;102757.16;;;3.37;100.00
12666;BME280;58531;59.050;17.416;2023-02-08T08:39:02;102761.00;;;3.39;100.00
12666;BME280;58531;59.050;17.416;2023-02-08T08:41:30;102770.47;;;3.40;100.00
12666;BME280;58531;59.050;17.416;2023-02-08T08:43:57;102770.91;;;3.42;100.00
12666;BME280;58531;59.050;17.416;2023-02-08T08:46:24;102768.16;;;3.50;100.00
12666;BME280;58531;59.050;17.416;2023-02-08T08:48:51;102763.19;;;3.49;100.00
12666;BME280;58531;59.050;17.416;2023-02-08T08:51:18;102766.69;;;3.53;100.00
12666;BME280;58531;59.050;17.416;2023-02-08T08:53:45;102766.69;;;3.53;100.00
12666;BME280;58531;59.050;17.416;2023-02-08T08:56:11;102774.84;;;3.48;100.00
12666;BME280;58531;59.050;17.416;2023-02-08T08:58:40;102772.41;;;3.55;100.00
12666;BME280;58531;59.050;17.416;2023-02-08T09:01:07;102764.84;;;3.53;100.00
12666;BME280;58531;59.050;17.416;2023-02-08T09:03:34;102758.63;;;3.61;100.00
12666;BME280;58531;59.050;17.416;2023-02-08T09:06:01;102749.72;;;3.66;100.00
12666;BME280;58531;59.050;17.416;2023-02-08T09:08:28;102761.47;;;3.68;100.00
12666;BME280;58531;59.050;17.416;2023-02-08T09:10:55;102755.44;;;3.68;100.00
12666;BME280;58531;59.050;17.416;2023-02-08T09:13:21;102757.41;;;3.71;100.00
12666;BME280;58531;59.050;17.416;2023-02-08T09:15:50;102759.38;;;3.74;100.00
12666;BME280;58531;59.050;17.416;2023-02-08T09:18:16;102759.81;;;3.76;100.00
12666;BME280;58531;59.050;17.416;2023-02-08T09:20:43;102766.81;;;3.84;100.00
12666;BME280;58531;59.050;17.416;2023-02-08T09:23:10;102784.97;;;3.85;100.00
12666;BME280;58531;59.050;17.416;2023-02-08T09:25:39;102769.88;;;3.86;100.00
12666;BME280;58531;59.050;17.416;2023-02-08T09:28:05;102782.00;;;3.87;100.00
12666;BME280;58531;59.050;17.416;2023-02-08T09:30:32;102780.44;;;3.86;100.00
12666;BME280;58531;59.050;17.416;2023-02-08T09:33:00;102781.31;;;3.90;100.00
12666;BME280;58531;59.050;17.416;2023-02-08T09:35:27;102783.63;;;3.91;100.00
12666;BME280;58531;59.050;17.416;2023-02-08T09:37:54;102787.56;;;3.97;100.00
12666;BME280;58531;59.050;17.416;2023-02-08T09:40:24;102779.03;;;3.88;100.00
12666;BME280;58531;59.050;17.416;2023-02-08T09:43:01;102783.47;;;4.00;100.00
12666;BME280;58531;59.050;17.416;2023-02-08T09:45:41;102787.91;;;3.96;100.00
12666;BME280;58531;59.050;17.416;2023-02-08T09:48:18;102774.69;;;3.96;100.00
12666;BME280;58531;59.050;17.416;2023-02-08T09:50:50;102780.34;;;4.10;100.00
12666;BME280;58531;59.050;17.416;2023-02-08T09:53:21;102782.66;;;4.11;100.00
12666;BME280;58531;59.050;17.416;2023-02-08T09:55:51;102785.16;;;4.20;100.00
12666;BME280;58531;59.050;17.416;2023-02-08T09:58:23;102781.41;;;4.21;100.00
12666;BME280;58531;59.050;17.416;2023-02-08T10:00:53;102775.53;;;4.27;100.00
12666;BME280;58531;59.050;17.416;2023-02-08T10:03:28;102779.38;;;4.30;100.00
12666;BME280;58531;59.050;17.416;2023-02-08T10:05:57;102784.81;;;4.37;100.00
12666;BME280;58531;59.050;17.416;2023-02-08T10:08:26;102793.28;;;4.42;100.00
12666;BME280;58531;59.050;17.416;2023-02-08T10:10:55;102788.94;;;4.50;100.00
12666;BME280;58531;59.050;17.416;2023-02-08T10:13:39;102789.28;;;4.48;100.00
12666;BME280;58531;59.050;17.416;2023-02-08T10:16:16;102783.22;;;4.48;100.00
12666;BME280;58531;59.050;17.416;2023-02-08T10:18:50;102776.56;;;4.54;100.00
12666;BME280;58531;59.050;17.416;2023-02-08T10:21:29;102776.13;;;4.52;100.00
12666;BME280;58531;59.050;17.416;2023-02-08T10:24:13;102770.16;;;4.55;100.00
12666;BME280;58531;59.050;17.416;2023-02-08T10:26:45;102775.72;;;4.50;100.00
12666;BME280;58531;59.050;17.416;2023-02-08T10:32:23;102771.69;;;4.56;100.00
12666;BME280;58531;59.050;17.416;2023-02-08T10:34:59;102778.72;;;4.63;100.00
12666;BME280;58531;59.050;17.416;2023-02-08T10:37:30;102777.16;;;4.63;100.00
12666;BME280;58531;59.050;17.416;2023-02-08T10:40:13;102778.03;;;4.66;100.00
12666;BME280;58531;59.050;17.416;2023-02-08T10:42:45;102781.44;;;4.67;100.00
12666;BME280;58531;59.050;17.416;2023-02-08T10:45:19;102773.66;;;4.74;100.00
12666;BME280;58531;59.050;17.416;2023-02-08T10:47:49;102767.59;;;4.73;100.00
12666;BME280;58531;59.050;17.416;2023-02-08T10:50:22;102756.41;;;4.80;100.00
12666;BME280;58531;59.050;17.416;2023-02-08T10:52:54;102740.75;;;4.90;100.00
12666;BME280;58531;59.050;17.416;2023-02-08T10:55:21;102740.75;;;4.90;100.00
12666;BME280;58531;59.050;17.416;2023-02-08T10:57:49;102745.31;;;4.90;100.00
12666;BME280;58531;59.050;17.416;2023-02-08T11:00:19;102750.34;;;4.95;100.00
12666;BME280;58531;59.050;17.416;2023-02-08T11:02:50;102746.47;;;4.92;100.00
12666;BME280;58531;59.050;17.416;2023-02-08T11:05:20;102752.03;;;4.87;100.00
12666;BME280;58531;59.050;17.416;2023-02-08T11:08:04;102745.31;;;4.90;100.00
12666;BME280;58531;59.050;17.416;2023-02-08T11:10:32;102744.53;;;4.89;100.00
12666;BME280;58531;59.050;17.416;2023-02-08T11:13:02;102746.06;;;4.90;100.00
12666;BME280;58531;59.050;17.416;2023-02-08T11:15:37;102741.97;;;4.93;100.00
12666;BME280;58531;59.050;17.416;2023-02-08T11:18:06;102742.56;;;4.86;100.00
12666;BME280;58531;59.050;17.416;2023-02-08T11:20:47;102740.63;;;4.83;100.00
12666;BME280;58531;59.050;17.416;2023-02-08T11:23:21;102750.06;;;4.84;100.00
12666;BME280;58531;59.050;17.416;2023-02-08T11:25:49;102737.25;;;4.86;100.00
12666;BME280;58531;59.050;17.416;2023-02-08T11:28:28;102743.34;;;4.87;100.00
12666;BME280;58531;59.050;17.416;2023-02-08T11:30:57;102741.69;;;4.98;100.00
12666;BME280;58531;59.050;17.416;2023-02-08T11:33:26;102732.66;;;4.99;100.00
12666;BME280;58531;59.050;17.416;2023-02-08T11:36:01;102730.34;;;4.97;100.00
12666;BME280;58531;59.050;17.416;2023-02-08T11:38:30;102733.28;;;5.11;100.00
12666;BME280;58531;59.050;17.416;2023-02-08T11:41:00;102736.63;;;5.08;100.00
12666;BME280;58531;59.050;17.416;2023-02-08T11:43:29;102731.28;;;5.05;100.00
12666;BME280;58531;59.050;17.416;2023-02-08T11:45:58;102724.34;;;5.00;100.00
12666;BME280;58531;59.050;17.416;2023-02-08T11:48:36;102727.09;;;5.04;100.00
12666;BME280;58531;59.050;17.416;2023-02-08T11:51:05;102726.31;;;5.03;100.00
12666;BME280;58531;59.050;17.416;2023-02-08T11:53:34;102724.03;;;5.02;100.00
12666;BME280;58531;59.050;17.416;2023-02-08T11:56:05;102724.34;;;5.00;100.00
12666;BME280;58531;59.050;17.416;2023-02-08T11:58:33;102724.34;;;5.00;100.00
12666;BME280;58531;59.050;17.416;2023-02-08T12:01:02;102720.59;;;5.01;100.00
12666;BME280;58531;59.050;17.416;2023-02-08T12:03:31;102714.13;;;4.99;100.00
12666;BME280;58531;59.050;17.416;2023-02-08T12:06:21;102720.53;;;4.98;100.00
12666;BME280;58531;59.050;17.416;2023-02-08T12:09:00;102710.94;;;4.93;100.00
12666;BME280;58531;59.050;17.416;2023-02-08T12:11:34;102712.06;;;4.92;100.00
12666;BME280;58531;59.050;17.416;2023-02-08T12:14:29;102704.38;;;4.87;100.00
12666;BME280;58531;59.050;17.416;2023-02-08T12:17:25;102691.16;;;4.87;100.00
12666;BME280;58531;59.050;17.416;2023-02-08T12:20:07;102694.09;;;4.82;100.00
12666;BME280;58531;59.050;17.416;2023-02-08T12:22:41;102689.19;;;4.84;100.00
12666;BME280;58531;59.050;17.416;2023-02-08T12:25:20;102691.84;;;4.84;100.00
12666;BME280;58531;59.050;17.416;2023-02-08T12:27:58;102693.09;;;4.90;100.00
12666;BME280;58531;59.050;17.416;2023-02-08T12:30:31;102693.47;;;4.89;100.00
12666;BME280;58531;59.050;17.416;2023-02-08T12:33:10;102693.53;;;4.92;100.00
12666;BME280;58531;59.050;17.416;2023-02-08T12:35:52;102696.34;;;4.99;100.00
12666;BME280;58531;59.050;17.416;2023-02-08T12:38:46;102689.78;;;4.93;100.00
12666;BME280;58531;59.050;17.416;2023-02-08T12:41:40;102689.91;;;4.81;100.00
12666;BME280;58531;59.050;17.416;2023-02-08T12:44:17;102685.22;;;4.75;100.00
12666;BME280;58531;59.050;17.416;2023-02-08T12:46:55;102683.34;;;4.75;100.00
12666;BME280;58531;59.050;17.416;2023-02-08T12:49:41;102680.34;;;4.77;100.00
12666;BME280;58531;59.050;17.416;2023-02-08T12:52:23;102681.19;;;4.81;100.00
12666;BME280;58531;59.050;17.416;2023-02-08T12:54:56;102674.72;;;4.78;100.00
12666;BME280;58531;59.050;17.416;2023-02-08T12:57:28;102682.97;;;4.77;100.00
12666;BME280;58531;59.050;17.416;2023-02-08T12:59:58;102683.34;;;4.75;100.00
12666;BME280;58531;59.050;17.416;2023-02-08T13:02:30;102682.06;;;4.69;100.00
12666;BME280;58531;59.050;17.416;2023-02-08T13:05:02;102674.63;;;4.75;100.00
12666;BME280;58531;59.050;17.416;2023-02-08T13:07:32;102664.72;;;4.72;100.00